Time;durP1;ratioP1;P1;durP2;ratioP2;P2;SDS_P1;SDS_P2;PMS_P1;PMS_P2;Temp;Humidity;BMP_temperature;BMP_pressure;BME280_temperature;BME280_humidity;BME280_pressure;Samples;Min_cycle;Max_cycle;Signal;HPM_P1;HPM_P2
2023/03/19 00:02:13;;;;;;;49.33;18.65;;;6.00;61.40;;;;;;5122970;27;20095;-76
2023/03/19 00:04:39;;;;;;;43.05;17.40;;;6.00;61.60;;;;;;5116136;27;20403;-78
2023/03/19 00:07:05;;;;;;;48.50;18.90;;;5.90;62.10;;;;;;5121252;27;20050;-77
2023/03/19 00:09:31;;;;;;;53.92;22.58;;;5.90;62.80;;;;;;5127249;27;20471;-78
2023/03/19 00:11:56;;;;;;;50.47;20.65;;;5.90;62.50;;;;;;5128858;27;20023;-77
2023/03/19 00:14:22;;;;;;;43.92;18.02;;;5.90;62.50;;;;;;5128287;27;20039;-78
2023/03/19 00:16:48;;;;;;;43.65;17.60;;;5.80;62.60;;;;;;5122242;27;20064;-77
2023/03/19 00:19:14;;;;;;;39.75;16.83;;;5.80;63.20;;;;;;5110504;27;20038;-78
2023/03/19 00:21:40;;;;;;;55.70;25.42;;;5.80;63.10;;;;;;5121315;27;20487;-77
2023/03/19 00:24:06;;;;;;;45.40;18.20;;;5.80;63.30;;;;;;5127741;27;20015;-75
2023/03/19 00:26:33;;;;;;;47.50;18.00;;;5.70;63.50;;;;;;5121534;27;20030;-76
2023/03/19 00:29:00;;;;;;;45.67;16.85;;;5.70;63.20;;;;;;5127567;27;20031;-76
2023/03/19 00:31:27;;;;;;;47.97;19.42;;;5.70;63.60;;;;;;5134583;27;20027;-77
2023/03/19 00:33:56;;;;;;;51.45;19.42;;;5.60;63.40;;;;;;5119651;27;20028;-78
2023/03/19 00:36:24;;;;;;;46.28;18.45;;;5.60;63.40;;;;;;5132393;27;20076;-76
2023/03/19 00:38:50;;;;;;;52.42;19.23;;;5.60;63.30;;;;;;5117539;27;20080;-76
2023/03/19 00:41:17;;;;;;;44.08;17.90;;;5.60;63.50;;;;;;5134054;27;20030;-77
2023/03/19 00:43:43;;;;;;;49.65;19.42;;;5.60;63.70;;;;;;5109523;27;20457;-77
2023/03/19 00:46:08;;;;;;;49.50;19.13;;;5.60;64.80;;;;;;5107976;27;20026;-77
2023/03/19 00:48:34;;;;;;;55.95;23.15;;;5.50;63.90;;;;;;5116989;27;20388;-76
2023/03/19 00:51:05;;;;;;;63.08;23.35;;;5.50;64.10;;;;;;5135630;27;20030;-77
2023/03/19 00:53:31;;;;;;;58.30;21.45;;;5.40;64.20;;;;;;5128009;27;20087;-77
2023/03/19 00:55:57;;;;;;;55.05;20.58;;;5.40;64.50;;;;;;5124542;27;20457;-76
2023/03/19 00:58:23;;;;;;;55.13;19.60;;;5.40;64.50;;;;;;5127059;27;20036;-76
2023/03/19 01:00:52;;;;;;;51.17;20.70;;;5.40;64.50;;;;;;5133716;27;20071;-78
2023/03/19 01:03:18;;;;;;;52.85;19.95;;;5.30;64.50;;;;;;5110658;27;20038;-77
2023/03/19 01:05:45;;;;;;;62.47;20.52;;;5.30;64.50;;;;;;5127544;27;20027;-75
2023/03/19 01:08:11;;;;;;;52.17;20.15;;;5.30;64.60;;;;;;5127170;27;20035;-76
2023/03/19 01:10:37;;;;;;;53.55;20.10;;;5.30;64.90;;;;;;5116370;27;20486;-77
2023/03/19 01:13:03;;;;;;;48.97;19.98;;;5.30;64.90;;;;;;5121336;27;20042;-77
2023/03/19 01:15:29;;;;;;;47.15;18.52;;;5.20;64.40;;;;;;5103648;28;20028;-77
2023/03/19 01:17:55;;;;;;;42.95;17.05;;;5.30;64.70;;;;;;5107429;28;20461;-77
2023/03/19 01:20:22;;;;;;;39.85;16.25;;;5.20;64.70;;;;;;5127666;27;20023;-79
2023/03/19 01:22:48;;;;;;;34.38;13.75;;;5.20;64.70;;;;;;5127142;27;20023;-75
2023/03/19 01:25:14;;;;;;;34.70;13.30;;;5.20;64.80;;;;;;5132906;27;20518;-77
2023/03/19 01:27:40;;;;;;;38.17;14.80;;;5.20;64.90;;;;;;5117892;27;20043;-77
2023/03/19 01:30:07;;;;;;;31.90;12.88;;;5.20;65.00;;;;;;5103633;28;20032;-78
2023/03/19 01:32:33;;;;;;;36.58;13.82;;;5.20;65.10;;;;;;5127999;27;20055;-77
2023/03/19 01:34:59;;;;;;;34.58;13.82;;;5.10;65.30;;;;;;5128683;27;20051;-77
2023/03/19 01:37:25;;;;;;;35.45;13.27;;;5.10;64.90;;;;;;5123400;27;20070;-77
2023/03/19 01:39:50;;;;;;;38.25;16.08;;;5.10;65.10;;;;;;5126063;27;20047;-76
2023/03/19 01:42:16;;;;;;;36.30;15.60;;;5.10;65.20;;;;;;5120972;27;20030;-76
2023/03/19 01:44:43;;;;;;;40.13;16.52;;;5.10;65.00;;;;;;5126444;27;20019;-77
2023/03/19 01:47:25;;;;;;;41.88;16.23;;;5.10;65.80;;;;;;5107920;28;20086;-77
2023/03/19 01:49:55;;;;;;;42.90;17.25;;;5.00;65.70;;;;;;5126754;28;20385;-78
2023/03/19 01:52:24;;;;;;;57.05;19.77;;;5.00;66.50;;;;;;5133069;28;20030;-77
2023/03/19 01:54:51;;;;;;;55.22;20.42;;;5.00;66.10;;;;;;5126683;28;20031;-76
2023/03/19 01:57:17;;;;;;;49.25;19.58;;;5.00;66.30;;;;;;5108449;28;20032;-77
2023/03/19 01:59:47;;;;;;;46.90;18.15;;;5.00;66.40;;;;;;5126126;27;20392;-76
2023/03/19 02:02:33;;;;;;;63.15;22.50;;;5.00;66.40;;;;;;5096528;28;20038;-77
2023/03/19 02:05:07;;;;;;;70.85;25.80;;;5.00;66.60;;;;;;5114967;28;20027;-76
2023/03/19 02:07:36;;;;;;;68.25;24.92;;;5.00;66.90;;;;;;5120916;28;20033;-76
2023/03/19 02:10:07;;;;;;;62.58;24.70;;;4.90;66.90;;;;;;5126505;28;20023;-76
2023/03/19 02:12:33;;;;;;;65.10;26.03;;;4.90;67.00;;;;;;5122223;28;20432;-76
2023/03/19 02:14:59;;;;;;;70.45;25.02;;;4.90;67.20;;;;;;5123753;28;20023;-78
2023/03/19 02:17:27;;;;;;;68.68;25.17;;;4.80;67.30;;;;;;5106578;28;20034;-78
2023/03/19 02:19:53;;;;;;;64.80;26.38;;;4.80;67.40;;;;;;5129280;28;20023;-78
2023/03/19 02:22:22;;;;;;;70.72;28.42;;;4.70;67.50;;;;;;5126676;28;20027;-77
2023/03/19 02:24:51;;;;;;;79.70;27.40;;;4.70;67.70;;;;;;5120901;28;20035;-76
2023/03/19 02:27:17;;;;;;;65.43;26.52;;;4.70;68.10;;;;;;5118760;28;20393;-78
2023/03/19 02:29:42;;;;;;;78.43;29.23;;;4.70;68.30;;;;;;5122963;27;20059;-77
2023/03/19 02:32:08;;;;;;;73.95;28.65;;;4.70;68.10;;;;;;5123206;28;20403;-77
2023/03/19 02:34:37;;;;;;;73.20;28.02;;;4.60;68.20;;;;;;5108595;28;20040;-77
2023/03/19 02:37:09;;;;;;;84.78;31.25;;;4.60;68.60;;;;;;5126132;27;20032;-76
2023/03/19 02:39:46;;;;;;;79.07;28.90;;;4.50;69.20;;;;;;5108593;28;20496;-76
2023/03/19 02:42:13;;;;;;;76.03;27.77;;;4.40;69.60;;;;;;5108038;28;20019;-77
2023/03/19 02:44:39;;;;;;;89.30;30.98;;;4.40;70.20;;;;;;5121144;28;20472;-76
2023/03/19 02:47:05;;;;;;;90.40;32.92;;;4.30;70.00;;;;;;5132233;28;20047;-77
2023/03/19 02:49:31;;;;;;;109.95;42.25;;;4.30;70.10;;;;;;5122455;28;20067;-78
2023/03/19 02:51:57;;;;;;;108.72;41.55;;;4.20;70.70;;;;;;5121029;28;20070;-78
2023/03/19 02:54:22;;;;;;;92.57;35.90;;;4.20;71.20;;;;;;5127663;28;20035;-77
2023/03/19 02:56:49;;;;;;;103.55;38.00;;;4.20;71.10;;;;;;5105474;27;20019;-76
2023/03/19 02:59:15;;;;;;;79.20;33.22;;;4.10;71.70;;;;;;5124268;27;20055;-76
2023/03/19 03:01:40;;;;;;;78.38;31.50;;;4.10;72.40;;;;;;5127755;27;20027;-76
2023/03/19 03:04:07;;;;;;;78.30;33.33;;;4.10;72.50;;;;;;5128120;27;20038;-77
2023/03/19 03:06:33;;;;;;;75.07;34.00;;;4.10;73.00;;;;;;5112973;27;20031;-77
2023/03/19 03:08:58;;;;;;;100.75;38.80;;;3.90;73.20;;;;;;5104966;27;20042;-76
2023/03/19 03:11:24;;;;;;;109.03;36.40;;;3.90;74.00;;;;;;5122881;27;20027;-77
2023/03/19 03:13:50;;;;;;;95.53;36.60;;;3.90;74.80;;;;;;5107823;28;20110;-76
2023/03/19 03:16:16;;;;;;;100.88;36.75;;;3.90;74.80;;;;;;5130920;27;20051;-77
2023/03/19 03:18:42;;;;;;;67.95;28.75;;;3.80;75.10;;;;;;5125222;27;20430;-77
2023/03/19 03:21:09;;;;;;;55.22;24.40;;;3.80;75.20;;;;;;5098703;28;20023;-76
2023/03/19 03:23:35;;;;;;;50.42;22.80;;;3.80;75.70;;;;;;5116751;28;20058;-77
2023/03/19 03:26:01;;;;;;;62.92;25.48;;;3.70;75.90;;;;;;5119782;27;20027;-77
2023/03/19 03:28:27;;;;;;;75.25;29.23;;;3.70;76.50;;;;;;5128615;27;20623;-77
2023/03/19 03:31:00;;;;;;;63.70;25.42;;;3.70;76.70;;;;;;5112557;27;20122;-76
2023/03/19 03:33:26;;;;;;;44.25;20.45;;;3.60;77.70;;;;;;5123476;27;20375;-76
2023/03/19 03:35:51;;;;;;;44.35;21.08;;;3.60;79.00;;;;;;5122100;27;20465;-79
2023/03/19 03:38:17;;;;;;;49.45;22.30;;;3.60;79.30;;;;;;5125663;27;20035;-77
2023/03/19 03:40:43;;;;;;;47.38;21.17;;;3.60;79.70;;;;;;5124861;27;20434;-76
2023/03/19 03:43:09;;;;;;;54.47;23.38;;;3.60;81.10;;;;;;5135655;27;20034;-76
2023/03/19 03:45:35;;;;;;;80.32;29.30;;;3.50;82.10;;;;;;5136700;27;20022;-76
2023/03/19 03:48:01;;;;;;;77.45;30.40;;;3.50;83.90;;;;;;5118063;27;20103;-76
2023/03/19 03:50:26;;;;;;;72.43;28.52;;;3.50;85.50;;;;;;5135114;27;20035;-76
2023/03/19 03:52:52;;;;;;;63.75;25.35;;;3.40;86.90;;;;;;5110797;27;20373;-76
2023/03/19 03:55:18;;;;;;;69.43;26.92;;;3.40;90.10;;;;;;5134785;27;20027;-76
2023/03/19 03:57:43;;;;;;;66.28;26.02;;;3.40;91.20;;;;;;5121661;27;20047;-78
2023/03/19 04:00:11;;;;;;;63.92;25.80;;;3.30;92.40;;;;;;5127157;27;20480;-75
2023/03/19 04:02:37;;;;;;;58.17;24.17;;;3.30;93.00;;;;;;5124284;27;20038;-75
2023/03/19 04:05:03;;;;;;;65.70;24.20;;;3.30;94.40;;;;;;5117639;27;20428;-77
2023/03/19 04:07:28;;;;;;;56.05;24.25;;;3.30;95.20;;;;;;5128634;27;20031;-75
2023/03/19 04:09:57;;;;;;;67.57;25.73;;;3.20;96.10;;;;;;5124276;27;20427;-78
2023/03/19 04:12:23;;;;;;;68.70;27.73;;;3.20;97.60;;;;;;5108102;27;20027;-77
2023/03/19 04:14:48;;;;;;;65.57;27.52;;;3.20;98.90;;;;;;5126297;27;20035;-77
2023/03/19 04:17:14;;;;;;;67.85;27.73;;;3.20;99.60;;;;;;5123728;27;20534;-75
2023/03/19 04:19:42;;;;;;;67.35;26.73;;;3.20;99.90;;;;;;5129015;27;20031;-77
2023/03/19 04:22:07;;;;;;;68.78;28.70;;;3.10;99.90;;;;;;5122008;27;20019;-77
2023/03/19 04:24:33;;;;;;;73.72;29.33;;;3.10;99.90;;;;;;5110111;27;20457;-76
2023/03/19 04:26:59;;;;;;;72.32;30.00;;;3.10;99.90;;;;;;5128469;27;20473;-78
2023/03/19 04:29:25;;;;;;;77.15;31.63;;;3.10;99.90;;;;;;5125745;27;20035;-78
2023/03/19 04:31:51;;;;;;;79.95;30.95;;;3.10;99.90;;;;;;5129598;27;20052;-77
2023/03/19 04:34:17;;;;;;;88.75;33.22;;;3.10;99.90;;;;;;5128911;27;20031;-76
2023/03/19 04:36:43;;;;;;;80.40;32.05;;;3.10;99.90;;;;;;5127559;27;20067;-77
2023/03/19 04:39:08;;;;;;;84.32;32.47;;;3.10;99.90;;;;;;5120882;27;20088;-77
2023/03/19 04:41:35;;;;;;;82.30;32.10;;;3.00;99.90;;;;;;5102832;27;20027;-77
2023/03/19 04:44:01;;;;;;;83.68;33.42;;;3.00;99.90;;;;;;5127795;27;20023;-77
2023/03/19 04:46:26;;;;;;;82.30;32.53;;;3.00;99.90;;;;;;5115362;27;20028;-76
2023/03/19 04:48:52;;;;;;;84.18;32.30;;;3.00;99.90;;;;;;5108680;27;20497;-76
2023/03/19 04:51:20;;;;;;;88.00;34.20;;;3.00;99.90;;;;;;5120906;27;20102;-77
2023/03/19 04:53:46;;;;;;;83.03;33.70;;;3.00;99.90;;;;;;5127717;27;20096;-77
2023/03/19 04:56:15;;;;;;;94.45;37.35;;;2.90;99.90;;;;;;5131091;27;20025;-77
2023/03/19 04:58:41;;;;;;;102.38;42.95;;;2.80;99.90;;;;;;5121772;27;20032;-76
2023/03/19 05:01:07;;;;;;;98.03;43.42;;;2.80;99.90;;;;;;5110383;27;20373;-76
2023/03/19 05:03:33;;;;;;;103.20;42.15;;;2.80;99.90;;;;;;5128680;27;20440;-77
2023/03/19 05:05:59;;;;;;;98.95;43.28;;;2.80;99.90;;;;;;5124851;27;20084;-77
2023/03/19 05:08:25;;;;;;;104.45;45.08;;;2.80;99.90;;;;;;5124522;27;20027;-77
2023/03/19 05:10:50;;;;;;;103.90;42.20;;;2.80;99.90;;;;;;5100651;27;20031;-77
2023/03/19 05:13:16;;;;;;;108.50;45.40;;;2.90;99.90;;;;;;5128822;27;20061;-75
2023/03/19 05:15:43;;;;;;;112.03;45.25;;;2.90;99.90;;;;;;5121473;27;20031;-78
2023/03/19 05:18:10;;;;;;;102.60;42.67;;;3.00;99.90;;;;;;5126421;27;20496;-79
2023/03/19 05:20:36;;;;;;;99.35;38.80;;;3.00;99.90;;;;;;5119926;27;20449;-79
2023/03/19 05:23:02;;;;;;;107.38;39.92;;;3.00;99.90;;;;;;5107589;27;20034;-79
2023/03/19 05:25:29;;;;;;;101.93;38.25;;;3.10;99.90;;;;;;5126878;27;20023;-77
2023/03/19 05:27:55;;;;;;;97.60;36.55;;;3.20;99.90;;;;;;5127310;27;20069;-76
2023/03/19 05:30:22;;;;;;;97.53;36.22;;;3.30;99.90;;;;;;5127306;27;20034;-77
2023/03/19 05:32:49;;;;;;;125.57;44.30;;;3.30;99.90;;;;;;5126830;27;20462;-76
2023/03/19 05:35:16;;;;;;;126.15;48.10;;;3.40;99.90;;;;;;5127243;27;20051;-79
2023/03/19 05:37:42;;;;;;;141.13;49.97;;;3.50;99.90;;;;;;5126109;27;20107;-76
2023/03/19 05:40:08;;;;;;;153.15;56.60;;;3.60;99.90;;;;;;5115894;27;20105;-79
2023/03/19 05:42:34;;;;;;;149.13;58.15;;;3.70;99.90;;;;;;5103441;28;20115;-75
2023/03/19 05:44:59;;;;;;;144.38;59.20;;;3.80;99.90;;;;;;5121852;27;20051;-75
2023/03/19 05:47:25;;;;;;;131.73;54.88;;;3.90;99.90;;;;;;5108955;28;20051;-75
2023/03/19 05:49:51;;;;;;;130.30;53.72;;;4.00;99.90;;;;;;5122249;28;20089;-75
2023/03/19 05:52:17;;;;;;;134.25;49.33;;;4.10;99.90;;;;;;5121057;28;20035;-76
2023/03/19 05:54:43;;;;;;;71.55;28.67;;;4.20;99.90;;;;;;5117255;28;20118;-76
2023/03/19 05:57:08;;;;;;;76.35;30.00;;;4.30;99.90;;;;;;5127263;28;20072;-75
2023/03/19 05:59:34;;;;;;;65.32;27.02;;;4.50;99.90;;;;;;5121224;28;20042;-76
2023/03/19 06:02:00;;;;;;;73.35;30.48;;;4.60;99.90;;;;;;5127422;28;20045;-76
2023/03/19 06:04:26;;;;;;;77.78;32.78;;;4.80;99.90;;;;;;5121953;27;20030;-76
2023/03/19 06:06:52;;;;;;;69.68;27.98;;;4.90;99.90;;;;;;5127471;28;20385;-77
2023/03/19 06:09:18;;;;;;;49.92;19.42;;;5.00;99.90;;;;;;5117116;28;20043;-76
2023/03/19 06:11:44;;;;;;;46.28;18.58;;;5.10;99.90;;;;;;5125662;28;20082;-77
2023/03/19 06:14:10;;;;;;;41.75;17.25;;;5.10;99.90;;;;;;5102286;28;20439;-76
2023/03/19 06:16:36;;;;;;;40.67;16.80;;;5.20;99.90;;;;;;5128045;28;20098;-75
2023/03/19 06:19:02;;;;;;;35.35;15.48;;;5.20;99.90;;;;;;5107354;28;20117;-76
2023/03/19 06:21:29;;;;;;;36.13;16.13;;;5.40;99.90;;;;;;5107585;28;20023;-76
2023/03/19 06:23:58;;;;;;;34.13;12.73;;;5.60;99.90;;;;;;5125141;28;20023;-77
2023/03/19 06:26:24;;;;;;;28.20;12.55;;;5.60;99.80;;;;;;5121334;28;20070;-76
2023/03/19 06:28:50;;;;;;;31.10;14.05;;;5.70;98.40;;;;;;5122811;27;20032;-77
2023/03/19 06:31:16;;;;;;;32.20;14.48;;;5.90;98.40;;;;;;5113369;27;20377;-78
2023/03/19 06:33:42;;;;;;;31.58;15.32;;;6.00;97.90;;;;;;5136337;27;20027;-77
2023/03/19 06:36:08;;;;;;;46.95;17.88;;;6.20;95.90;;;;;;5117892;28;20080;-77
2023/03/19 06:38:34;;;;;;;32.30;12.70;;;6.30;95.00;;;;;;5118060;28;20088;-77
2023/03/19 06:41:00;;;;;;;36.10;17.88;;;6.30;93.40;;;;;;5099132;28;20023;-76
2023/03/19 06:43:26;;;;;;;36.50;15.90;;;6.50;93.30;;;;;;5117980;28;20370;-78
2023/03/19 06:45:52;;;;;;;48.00;20.38;;;6.60;92.90;;;;;;5118928;27;20449;-77
2023/03/19 07:31:49;;;;;;;39.60;18.08;;;9.00;80.30;;;;;;5071078;28;20699;-77
2023/03/19 07:34:15;;;;;;;48.28;22.10;;;9.20;81.30;;;;;;5071193;28;20083;-77
2023/03/19 07:36:41;;;;;;;41.13;19.33;;;9.50;81.10;;;;;;5069987;28;20032;-76
2023/03/19 07:39:06;;;;;;;42.95;17.75;;;9.60;77.30;;;;;;5069322;28;20414;-77
2023/03/19 07:41:32;;;;;;;45.72;20.90;;;9.70;76.80;;;;;;5069360;28;20035;-76
2023/03/19 07:43:58;;;;;;;41.92;19.00;;;9.90;76.20;;;;;;5069664;28;20039;-77
2023/03/19 07:46:23;;;;;;;40.58;17.63;;;10.00;73.60;;;;;;5070624;28;20044;-79
2023/03/19 07:48:49;;;;;;;36.25;16.10;;;10.10;74.00;;;;;;5070734;28;20025;-78
2023/03/19 07:51:15;;;;;;;32.28;16.45;;;10.40;72.20;;;;;;5070171;28;20029;-77
2023/03/19 07:53:40;;;;;;;34.13;15.73;;;10.70;70.50;;;;;;5070483;28;20101;-75
2023/03/19 07:56:06;;;;;;;26.77;13.07;;;11.00;68.90;;;;;;5070214;28;20032;-77
2023/03/19 07:58:32;;;;;;;26.75;13.40;;;11.20;67.50;;;;;;5070290;28;20036;-76
2023/03/19 08:00:57;;;;;;;44.75;19.52;;;11.50;68.30;;;;;;5069270;28;20031;-76
2023/03/19 08:03:23;;;;;;;40.75;20.90;;;11.70;68.40;;;;;;5070223;28;20060;-77
2023/03/19 08:05:50;;;;;;;30.77;14.52;;;12.20;67.40;;;;;;5069962;28;20459;-80
2023/03/19 08:08:16;;;;;;;31.33;15.55;;;12.30;61.80;;;;;;5070522;28;20063;-77
2023/03/19 08:10:42;;;;;;;31.30;15.80;;;12.40;61.80;;;;;;5069065;28;20033;-79
2023/03/19 08:13:08;;;;;;;64.20;27.65;;;12.40;59.20;;;;;;5070143;28;20033;-80
2023/03/19 08:15:34;;;;;;;32.92;14.50;;;12.40;60.20;;;;;;5069854;28;20422;-77
2023/03/19 08:18:02;;;;;;;47.53;20.95;;;12.70;61.60;;;;;;5070002;28;20028;-79
2023/03/19 08:20:27;;;;;;;27.40;13.50;;;13.00;58.40;;;;;;5069738;28;20426;-78
2023/03/19 08:22:53;;;;;;;31.67;12.15;;;13.10;56.80;;;;;;5068807;28;20021;-77
2023/03/19 08:25:19;;;;;;;33.13;12.30;;;13.50;57.10;;;;;;5069197;28;20021;-79
2023/03/19 08:27:45;;;;;;;26.38;12.93;;;13.50;56.80;;;;;;5069477;28;20025;-77
2023/03/19 08:30:11;;;;;;;31.00;15.90;;;13.70;54.40;;;;;;5068346;28;20110;-78
2023/03/19 08:32:37;;;;;;;31.88;15.18;;;13.70;53.30;;;;;;5068347;28;20397;-76
2023/03/19 08:35:04;;;;;;;31.65;14.55;;;14.10;54.00;;;;;;5069306;28;20025;-80
2023/03/19 08:37:30;;;;;;;28.83;15.38;;;14.20;54.50;;;;;;5068493;28;20020;-81
2023/03/19 08:39:56;;;;;;;22.77;13.55;;;14.00;52.40;;;;;;5069140;28;20040;-78
2023/03/19 08:42:22;;;;;;;26.17;13.27;;;14.10;52.00;;;;;;5059394;28;20056;-77
2023/03/19 08:44:48;;;;;;;25.08;14.50;;;14.50;51.70;;;;;;5055348;28;20020;-77
2023/03/19 08:47:14;;;;;;;25.13;14.32;;;14.40;50.10;;;;;;5055701;28;20096;-76
2023/03/19 08:49:40;;;;;;;46.60;25.08;;;14.50;51.50;;;;;;5054583;28;20033;-77
2023/03/19 08:52:06;;;;;;;54.03;30.70;;;14.70;52.80;;;;;;5054692;28;20033;-77
2023/03/19 08:54:32;;;;;;;143.40;85.25;;;14.70;50.40;;;;;;5055477;28;20155;-78
2023/03/19 08:57:00;;;;;;;65.80;38.65;;;14.70;55.50;;;;;;5055822;28;20065;-79
2023/03/19 08:59:26;;;;;;;31.83;16.58;;;15.00;49.10;;;;;;5056216;28;20356;-78
2023/03/19 09:01:52;;;;;;;26.63;14.65;;;15.30;49.20;;;;;;5055937;28;20020;-77
2023/03/19 09:04:19;;;;;;;32.53;17.77;;;15.40;49.00;;;;;;5054910;28;20025;-78
2023/03/19 09:06:45;;;;;;;32.53;16.40;;;15.70;48.60;;;;;;5056429;28;20060;-78
2023/03/19 09:09:11;;;;;;;31.98;16.38;;;16.00;47.10;;;;;;5055781;28;20040;-78
2023/03/19 09:11:36;;;;;;;31.10;15.90;;;16.00;47.20;;;;;;5056015;28;20029;-80
2023/03/19 09:14:02;;;;;;;21.40;12.68;;;16.30;48.00;;;;;;5055472;28;20049;-77
2023/03/19 09:16:28;;;;;;;25.90;14.40;;;16.20;47.40;;;;;;5055361;28;20092;-80
2023/03/19 09:18:55;;;;;;;22.58;13.07;;;16.30;46.90;;;;;;5054541;28;20116;-77
2023/03/19 09:21:20;;;;;;;28.50;14.52;;;16.60;46.70;;;;;;5046281;28;20125;-78
2023/03/19 09:23:46;;;;;;;29.33;15.23;;;16.80;45.20;;;;;;5055561;28;20521;-78
2023/03/19 09:26:12;;;;;;;27.85;12.80;;;16.90;44.70;;;;;;5055530;28;20056;-76
2023/03/19 09:28:37;;;;;;;25.25;11.95;;;16.90;43.90;;;;;;5052178;28;20037;-79
2023/03/19 09:31:06;;;;;;;18.45;10.30;;;16.80;41.40;;;;;;5054749;28;20056;-77
2023/03/19 09:33:32;;;;;;;25.23;11.43;;;17.00;44.40;;;;;;5054869;28;20025;-78
2023/03/19 09:35:57;;;;;;;23.38;12.20;;;17.30;45.80;;;;;;5054499;28;20154;-78
2023/03/19 09:38:23;;;;;;;20.70;10.70;;;17.50;43.20;;;;;;5055101;28;20052;-78
2023/03/19 09:41:05;;;;;;;44.50;22.77;;;17.30;43.40;;;;;;5054948;28;20033;-76
2023/03/19 09:43:31;;;;;;;;;;;17.50;43.20;;;;;;5049732;28;20032;-78
2023/03/19 09:45:58;;;;;;;51.65;25.88;;;17.70;41.70;;;;;;5054669;28;19909;-76
2023/03/19 09:48:39;;;;;;;26.33;13.55;;;17.80;42.20;;;;;;5053418;28;20028;-75
2023/03/19 09:51:11;;;;;;;23.67;12.27;;;18.20;41.80;;;;;;5046599;28;20471;-77
2023/03/19 09:53:47;;;;;;;26.15;13.18;;;17.90;42.20;;;;;;5052241;28;20423;-76
2023/03/19 09:56:15;;;;;;;24.40;12.23;;;18.00;40.80;;;;;;5054024;28;20392;-76
2023/03/19 09:58:41;;;;;;;26.52;13.70;;;18.00;41.90;;;;;;5054805;28;20533;-75
2023/03/19 10:01:24;;;;;;;30.85;14.40;;;18.10;41.70;;;;;;5054793;28;20024;-76
2023/03/19 10:04:26;;;;;;;27.55;15.07;;;18.50;41.20;;;;;;5045596;28;20029;-76
2023/03/19 10:07:03;;;;;;;34.20;16.30;;;18.40;40.30;;;;;;5046424;28;20529;-76
2023/03/19 10:09:32;;;;;;;34.03;16.33;;;18.70;40.60;;;;;;5053092;28;20112;-78
2023/03/19 10:12:10;;;;;;;25.10;12.90;;;19.10;41.60;;;;;;5054958;28;20421;-78
2023/03/19 10:14:46;;;;;;;31.67;13.43;;;19.40;40.80;;;;;;5053715;28;20040;-76
2023/03/19 10:17:18;;;;;;;26.75;13.20;;;19.60;39.60;;;;;;5052841;28;20029;-75
2023/03/19 10:20:16;;;;;;;22.23;13.52;;;19.60;39.10;;;;;;5048584;28;20035;-77
2023/03/19 10:22:49;;;;;;;69.57;32.00;;;19.90;40.40;;;;;;5032367;28;20037;-76
2023/03/19 10:25:27;;;;;;;24.23;12.90;;;20.10;40.00;;;;;;5031906;28;20049;-77
2023/03/19 10:27:59;;;;;;;20.73;12.73;;;20.10;39.40;;;;;;5031756;28;20048;-77
2023/03/19 10:30:25;;;;;;;25.77;13.40;;;19.90;38.20;;;;;;5014773;28;20145;-78
2023/03/19 10:33:21;;;;;;;24.33;11.00;;;20.20;39.30;;;;;;5031659;28;20052;-79
2023/03/19 10:35:55;;;;;;;21.85;10.88;;;20.40;37.50;;;;;;5031394;28;20138;-77
2023/03/19 10:38:23;;;;;;;18.30;10.70;;;20.20;36.60;;;;;;5031210;28;20033;-77
2023/03/19 10:41:16;;;;;;;20.38;10.35;;;20.80;38.70;;;;;;5014593;28;20160;-77
2023/03/19 10:43:46;;;;;;;15.93;10.02;;;21.00;36.30;;;;;;5031418;28;20033;-77
2023/03/19 10:46:14;;;;;;;20.20;10.43;;;21.30;36.10;;;;;;5031108;28;20120;-76
2023/03/19 10:48:45;;;;;;;24.25;11.98;;;;;;;;;;5014886;28;20025;-76
2023/03/19 10:51:15;;;;;;;24.60;14.05;;;21.70;36.50;;;;;;5031393;28;20037;-77
2023/03/19 10:53:41;;;;;;;22.25;11.63;;;21.30;38.20;;;;;;5031402;28;20042;-76
2023/03/19 10:56:29;;;;;;;15.48;8.82;;;21.70;38.20;;;;;;5031894;28;20430;-75
2023/03/19 10:58:59;;;;;;;15.77;7.70;;;21.70;35.20;;;;;;5040718;28;20060;-77
2023/03/19 11:01:33;;;;;;;16.77;8.10;;;22.00;33.90;;;;;;5053481;28;20024;-76
2023/03/19 11:04:01;;;;;;;16.35;7.38;;;21.90;32.80;;;;;;5053497;28;20044;-76
2023/03/19 11:06:37;;;;;;;16.77;9.27;;;22.40;31.70;;;;;;5053468;28;20021;-75
2023/03/19 11:09:12;;;;;;;16.70;8.48;;;22.60;31.00;;;;;;5054020;28;20047;-77
2023/03/19 11:11:45;;;;;;;13.48;7.68;;;22.50;31.60;;;;;;5052528;28;20065;-77
2023/03/19 11:14:20;;;;;;;16.25;8.77;;;22.60;30.00;;;;;;5053210;28;20040;-76
2023/03/19 11:17:16;;;;;;;14.23;7.35;;;22.90;30.40;;;;;;5053941;28;20087;-76
2023/03/19 11:19:55;;;;;;;16.10;8.82;;;22.80;30.00;;;;;;5053654;28;20021;-76
2023/03/19 11:22:34;;;;;;;11.88;7.03;;;22.80;30.00;;;;;;5053642;28;20481;-77
2023/03/19 11:25:13;;;;;;;20.55;9.30;;;22.20;30.20;;;;;;5053820;28;20029;-76
2023/03/19 11:27:39;;;;;;;26.17;13.80;;;22.80;31.50;;;;;;5053491;28;20459;-78
2023/03/19 11:30:16;;;;;;;33.58;16.02;;;22.20;31.00;;;;;;5053570;28;20040;-76
2023/03/19 11:33:03;;;;;;;23.80;11.60;;;22.10;32.90;;;;;;5052385;28;20074;-75
2023/03/19 11:35:35;;;;;;;19.63;9.48;;;21.60;30.80;;;;;;5052110;28;20029;-77
2023/03/19 11:38:03;;;;;;;22.05;11.18;;;20.70;32.80;;;;;;5053454;28;20029;-76
2023/03/19 11:40:54;;;;;;;16.63;9.60;;;20.20;34.50;;;;;;5053639;28;20025;-77
2023/03/19 11:43:32;;;;;;;15.70;7.22;;;20.00;36.60;;;;;;5053316;28;20022;-76
2023/03/19 11:46:05;;;;;;;18.83;8.05;;;20.20;32.70;;;;;;5053500;28;20052;-76
2023/03/19 11:48:56;;;;;;;14.20;6.90;;;20.90;32.70;;;;;;5052008;28;20468;-75
2023/03/19 11:51:28;;;;;;;11.23;6.32;;;21.90;29.70;;;;;;5053483;28;20052;-77
2023/03/19 11:54:20;;;;;;;11.32;6.55;;;22.60;30.50;;;;;;5053587;28;20063;-77
2023/03/19 11:56:55;;;;;;;14.30;7.35;;;;;;;;;;5051877;28;20575;-75
2023/03/19 12:00:01;;;;;;;16.08;7.15;;;22.80;30.40;;;;;;5053167;28;20387;-77
2023/03/19 12:02:35;;;;;;;15.23;7.30;;;23.10;29.40;;;;;;5052582;28;20037;-76
2023/03/19 12:05:12;;;;;;;13.60;7.90;;;23.10;30.20;;;;;;5053387;28;20040;-77
2023/03/19 12:08:14;;;;;;;13.98;6.55;;;22.70;29.10;;;;;;5053539;28;20033;-75
2023/03/19 12:10:50;;;;;;;17.08;7.20;;;23.10;31.50;;;;;;5051952;28;20040;-75
2023/03/19 12:13:43;;;;;;;13.57;7.28;;;23.20;29.20;;;;;;5053038;28;20036;-75
2023/03/19 12:16:09;;;;;;;12.70;6.80;;;22.90;29.50;;;;;;5051634;28;20032;-75
2023/03/19 12:19:16;;;;;;;16.98;7.45;;;23.10;28.20;;;;;;5055542;28;20029;-76
2023/03/19 12:21:48;;;;;;;14.88;7.93;;;23.00;29.10;;;;;;5056772;28;20064;-76
2023/03/19 12:24:20;;;;;;;12.60;7.38;;;23.00;28.30;;;;;;5055376;28;20021;-75
2023/03/19 12:27:17;;;;;;;14.13;8.50;;;22.80;29.60;;;;;;5056895;28;20032;-76
2023/03/19 12:30:12;;;;;;;19.48;8.25;;;23.00;29.60;;;;;;5053189;28;20564;-76
2023/03/19 12:32:57;;;;;;;13.70;8.10;;;;;;;;;;5055670;28;20369;-76
2023/03/19 12:35:34;;;;;;;15.63;7.90;;;;;;;;;;5055340;28;20501;-74
2023/03/19 12:38:16;;;;;;;14.55;7.70;;;23.50;27.60;;;;;;5055429;28;20021;-75
2023/03/19 12:41:03;;;;;;;17.63;7.72;;;23.20;29.60;;;;;;5053382;28;20391;-75
2023/03/19 12:43:58;;;;;;;17.60;7.43;;;23.10;29.40;;;;;;5055117;28;20056;-75
2023/03/19 12:46:31;;;;;;;15.95;7.32;;;22.80;30.00;;;;;;5044692;28;20496;-76
2023/03/19 12:49:51;;;;;;;12.20;7.30;;;23.00;29.50;;;;;;5053499;28;20101;-77
2023/03/19 12:52:39;;;;;;;12.88;7.03;;;22.70;28.20;;;;;;5044577;28;20032;-76
2023/03/19 12:55:19;;;;;;;12.63;7.30;;;22.90;28.80;;;;;;5053858;28;20048;-78
2023/03/19 12:57:57;;;;;;;17.73;9.75;;;23.00;29.50;;;;;;5055403;28;20033;-77
2023/03/19 13:00:34;;;;;;;11.88;7.40;;;23.30;30.30;;;;;;5053727;28;20036;-76
2023/03/19 13:02:59;;;;;;;14.60;8.25;;;22.90;28.90;;;;;;5053378;28;20111;-78
2023/03/19 13:06:03;;;;;;;16.17;8.73;;;23.00;29.90;;;;;;5053771;28;20108;-76
2023/03/19 13:08:43;;;;;;;12.88;7.82;;;23.00;29.00;;;;;;5054015;28;20033;-78
2023/03/19 13:11:30;;;;;;;15.43;8.80;;;22.90;28.50;;;;;;5053339;28;20471;-77
2023/03/19 13:14:37;;;;;;;20.63;11.50;;;22.90;28.70;;;;;;5054632;28;20025;-78
2023/03/19 13:17:29;;;;;;;18.48;10.68;;;22.80;28.40;;;;;;5043368;28;20048;-77
2023/03/19 13:19:55;;;;;;;13.35;7.72;;;22.90;29.50;;;;;;5073221;28;20028;-77
2023/03/19 13:22:26;;;;;;;15.35;7.32;;;23.00;27.30;;;;;;5071390;28;20021;-78
2023/03/19 13:24:52;;;;;;;17.02;7.78;;;22.50;28.00;;;;;;5048419;28;20382;-76
2023/03/19 13:27:23;;;;;;;14.93;8.50;;;22.30;27.90;;;;;;5054771;28;20021;-77
2023/03/19 13:30:00;;;;;;;18.80;9.15;;;22.40;27.80;;;;;;5052675;28;20095;-76
2023/03/19 13:32:43;;;;;;;13.00;7.38;;;22.50;28.10;;;;;;5069167;28;20032;-77
2023/03/19 13:35:30;;;;;;;15.75;7.57;;;22.60;28.10;;;;;;5058062;28;20025;-77